sensor_id;sensor_type;location;lat;lon;timestamp;temperature;humidity
27900;DHT22;15243;50.726;7.080;2023-02-15T00:01:42;2.20;99.90
27900;DHT22;15243;50.726;7.080;2023-02-15T00:04:13;2.30;99.90
27900;DHT22;15243;50.726;7.080;2023-02-15T00:06:40;2.30;99.90
27900;DHT22;15243;50.726;7.080;2023-02-15T00:09:09;2.40;99.90
27900;DHT22;15243;50.726;7.080;2023-02-15T00:11:36;2.40;99.90
27900;DHT22;15243;50.726;7.080;2023-02-15T00:14:21;2.40;99.90
27900;DHT22;15243;50.726;7.080;2023-02-15T00:16:51;2.40;99.90
27900;DHT22;15243;50.726;7.080;2023-02-15T00:19:19;2.20;99.90
27900;DHT22;15243;50.726;7.080;2023-02-15T00:21:48;2.10;99.90
27900;DHT22;15243;50.726;7.080;2023-02-15T00:24:17;1.90;99.90
27900;DHT22;15243;50.726;7.080;2023-02-15T00:26:45;1.90;99.90
27900;DHT22;15243;50.726;7.080;2023-02-15T00:29:13;1.80;99.90
27900;DHT22;15243;50.726;7.080;2023-02-15T00:31:40;1.80;99.90
27900;DHT22;15243;50.726;7.080;2023-02-15T00:34:12;1.70;99.90
27900;DHT22;15243;50.726;7.080;2023-02-15T00:36:39;1.80;99.90
27900;DHT22;15243;50.726;7.080;2023-02-15T00:39:07;1.90;99.90
27900;DHT22;15243;50.726;7.080;2023-02-15T00:41:34;2.00;99.90
27900;DHT22;15243;50.726;7.080;2023-02-15T00:44:01;2.00;99.90
27900;DHT22;15243;50.726;7.080;2023-02-15T00:46:29;2.00;99.90
27900;DHT22;15243;50.726;7.080;2023-02-15T00:48:56;2.00;99.90
27900;DHT22;15243;50.726;7.080;2023-02-15T00:51:23;2.00;99.90
27900;DHT22;15243;50.726;7.080;2023-02-15T00:53:50;2.00;99.90
27900;DHT22;15243;50.726;7.080;2023-02-15T00:56:17;1.90;99.90
27900;DHT22;15243;50.726;7.080;2023-02-15T00:58:44;1.80;99.90
27900;DHT22;15243;50.726;7.080;2023-02-15T01:01:17;1.70;99.90
27900;DHT22;15243;50.726;7.080;2023-02-15T01:03:44;1.60;99.90
27900;DHT22;15243;50.726;7.080;2023-02-15T01:06:14;1.50;99.90
27900;DHT22;15243;50.726;7.080;2023-02-15T01:08:43;1.50;99.90
27900;DHT22;15243;50.726;7.080;2023-02-15T01:11:15;1.50;99.90
27900;DHT22;15243;50.726;7.080;2023-02-15T01:13:54;1.40;99.90
27900;DHT22;15243;50.726;7.080;2023-02-15T01:16:22;1.40;99.90
27900;DHT22;15243;50.726;7.080;2023-02-15T01:18:50;1.50;99.90
27900;DHT22;15243;50.726;7.080;2023-02-15T01:21:19;1.50;99.90
27900;DHT22;15243;50.726;7.080;2023-02-15T01:23:46;1.50;99.90
27900;DHT22;15243;50.726;7.080;2023-02-15T01:26:14;1.50;99.90
27900;DHT22;15243;50.726;7.080;2023-02-15T01:28:41;1.50;99.90
27900;DHT22;15243;50.726;7.080;2023-02-15T01:31:11;1.60;99.90
27900;DHT22;15243;50.726;7.080;2023-02-15T01:33:38;1.60;99.90
27900;DHT22;15243;50.726;7.080;2023-02-15T01:36:05;1.60;99.90
27900;DHT22;15243;50.726;7.080;2023-02-15T01:38:33;1.50;99.90
27900;DHT22;15243;50.726;7.080;2023-02-15T01:41:00;1.40;99.90
27900;DHT22;15243;50.726;7.080;2023-02-15T01:43:48;1.50;99.90
27900;DHT22;15243;50.726;7.080;2023-02-15T01:46:18;1.40;99.90
27900;DHT22;15243;50.726;7.080;2023-02-15T01:48:54;1.40;99.90
27900;DHT22;15243;50.726;7.080;2023-02-15T01:51:25;1.40;99.90
27900;DHT22;15243;50.726;7.080;2023-02-15T01:53:59;1.40;99.90
27900;DHT22;15243;50.726;7.080;2023-02-15T01:56:31;1.40;99.90
27900;DHT22;15243;50.726;7.080;2023-02-15T01:59:02;1.40;99.90
27900;DHT22;15243;50.726;7.080;2023-02-15T02:01:30;1.40;99.90
27900;DHT22;15243;50.726;7.080;2023-02-15T02:04:15;1.40;99.90
27900;DHT22;15243;50.726;7.080;2023-02-15T02:06:44;1.30;99.90
27900;DHT22;15243;50.726;7.080;2023-02-15T02:09:12;1.30;99.90
27900;DHT22;15243;50.726;7.080;2023-02-15T02:11:40;1.20;99.90
27900;DHT22;15243;50.726;7.080;2023-02-15T02:14:08;1.20;99.90
27900;DHT22;15243;50.726;7.080;2023-02-15T02:16:40;1.20;99.90
27900;DHT22;15243;50.726;7.080;2023-02-15T02:31:05;1.00;99.90
27900;DHT22;15243;50.726;7.080;2023-02-15T02:33:52;1.00;99.90
27900;DHT22;15243;50.726;7.080;2023-02-15T02:39:22;1.10;99.90
27900;DHT22;15243;50.726;7.080;2023-02-15T02:44:38;0.90;99.90
27900;DHT22;15243;50.726;7.080;2023-02-15T02:47:23;0.90;99.90
27900;DHT22;15243;50.726;7.080;2023-02-15T02:49:57;0.90;99.90
27900;DHT22;15243;50.726;7.080;2023-02-15T02:52:42;0.80;99.90
27900;DHT22;15243;50.726;7.080;2023-02-15T02:55:30;0.80;99.90
27900;DHT22;15243;50.726;7.080;2023-02-15T02:57:58;0.80;99.90
27900;DHT22;15243;50.726;7.080;2023-02-15T03:00:31;0.70;99.90
27900;DHT22;15243;50.726;7.080;2023-02-15T03:03:06;0.70;99.90
27900;DHT22;15243;50.726;7.080;2023-02-15T03:05:37;0.70;99.90
27900;DHT22;15243;50.726;7.080;2023-02-15T03:08:07;0.70;99.90
27900;DHT22;15243;50.726;7.080;2023-02-15T03:10:38;0.70;99.90
27900;DHT22;15243;50.726;7.080;2023-02-15T03:13:06;0.70;99.90
27900;DHT22;15243;50.726;7.080;2023-02-15T03:15:38;0.70;99.90
27900;DHT22;15243;50.726;7.080;2023-02-15T03:18:30;0.60;99.90
27900;DHT22;15243;50.726;7.080;2023-02-15T03:21:00;0.60;99.90
27900;DHT22;15243;50.726;7.080;2023-02-15T03:23:28;0.60;99.90
27900;DHT22;15243;50.726;7.080;2023-02-15T03:25:59;0.60;99.90
27900;DHT22;15243;50.726;7.080;2023-02-15T03:28:41;0.60;99.90
27900;DHT22;15243;50.726;7.080;2023-02-15T03:31:10;0.60;99.90
27900;DHT22;15243;50.726;7.080;2023-02-15T03:33:42;0.50;99.90
27900;DHT22;15243;50.726;7.080;2023-02-15T03:36:12;0.50;99.90
27900;DHT22;15243;50.726;7.080;2023-02-15T03:42:25;0.60;99.90
27900;DHT22;15243;50.726;7.080;2023-02-15T03:47:41;0.50;99.90
27900;DHT22;15243;50.726;7.080;2023-02-15T03:53:03;0.50;99.90
27900;DHT22;15243;50.726;7.080;2023-02-15T03:55:33;0.40;99.90
27900;DHT22;15243;50.726;7.080;2023-02-15T03:58:00;0.30;99.90
27900;DHT22;15243;50.726;7.080;2023-02-15T04:00:59;0.30;99.90
27900;DHT22;15243;50.726;7.080;2023-02-15T04:03:50;0.30;99.90
27900;DHT22;15243;50.726;7.080;2023-02-15T04:06:19;0.30;99.90
27900;DHT22;15243;50.726;7.080;2023-02-15T04:08:46;0.30;99.90
27900;DHT22;15243;50.726;7.080;2023-02-15T04:11:31;0.30;99.90
27900;DHT22;15243;50.726;7.080;2023-02-15T04:13:58;0.30;99.90
27900;DHT22;15243;50.726;7.080;2023-02-15T04:16:25;0.40;99.90
27900;DHT22;15243;50.726;7.080;2023-02-15T04:18:52;0.30;99.90
27900;DHT22;15243;50.726;7.080;2023-02-15T04:21:37;0.30;99.90
27900;DHT22;15243;50.726;7.080;2023-02-15T04:24:23;0.30;99.90
27900;DHT22;15243;50.726;7.080;2023-02-15T04:27:08;0.30;99.90
27900;DHT22;15243;50.726;7.080;2023-02-15T04:29:35;0.30;99.90
27900;DHT22;15243;50.726;7.080;2023-02-15T04:32:02;0.30;99.90
27900;DHT22;15243;50.726;7.080;2023-02-15T04:34:29;0.30;99.90
27900;DHT22;15243;50.726;7.080;2023-02-15T04:36:56;0.30;99.90
27900;DHT22;15243;50.726;7.080;2023-02-15T04:39:23;0.30;99.90
27900;DHT22;15243;50.726;7.080;2023-02-15T04:41:49;0.20;99.90
27900;DHT22;15243;50.726;7.080;2023-02-15T04:44:16;0.30;99.90
27900;DHT22;15243;50.726;7.080;2023-02-15T04:46:43;0.30;99.90
27900;DHT22;15243;50.726;7.080;2023-02-15T04:49:10;0.30;99.90
27900;DHT22;15243;50.726;7.080;2023-02-15T04:51:37;0.30;99.90
27900;DHT22;15243;50.726;7.080;2023-02-15T04:54:04;0.30;99.90
27900;DHT22;15243;50.726;7.080;2023-02-15T04:56:30;0.30;99.90
27900;DHT22;15243;50.726;7.080;2023-02-15T04:58:59;0.40;99.90
27900;DHT22;15243;50.726;7.080;2023-02-15T05:01:26;0.40;99.90
27900;DHT22;15243;50.726;7.080;2023-02-15T05:03:53;0.40;99.90
27900;DHT22;15243;50.726;7.080;2023-02-15T05:06:20;0.30;99.90
27900;DHT22;15243;50.726;7.080;2023-02-15T05:08:47;0.20;99.90
27900;DHT22;15243;50.726;7.080;2023-02-15T05:11:14;0.30;99.90
27900;DHT22;15243;50.726;7.080;2023-02-15T05:13:41;0.30;99.90
27900;DHT22;15243;50.726;7.080;2023-02-15T05:16:08;0.30;99.90
27900;DHT22;15243;50.726;7.080;2023-02-15T05:18:35;0.30;99.90
27900;DHT22;15243;50.726;7.080;2023-02-15T05:21:01;0.30;99.90
27900;DHT22;15243;50.726;7.080;2023-02-15T05:23:28;0.30;99.90
27900;DHT22;15243;50.726;7.080;2023-02-15T05:25:57;0.30;99.90
27900;DHT22;15243;50.726;7.080;2023-02-15T05:28:43;0.40;99.90
27900;DHT22;15243;50.726;7.080;2023-02-15T05:31:12;0.40;99.90
27900;DHT22;15243;50.726;7.080;2023-02-15T05:33:40;0.30;99.90
27900;DHT22;15243;50.726;7.080;2023-02-15T05:36:08;0.30;99.90
27900;DHT22;15243;50.726;7.080;2023-02-15T05:38:35;0.30;99.90
27900;DHT22;15243;50.726;7.080;2023-02-15T05:41:09;0.30;99.90
27900;DHT22;15243;50.726;7.080;2023-02-15T05:43:38;0.30;99.90
27900;DHT22;15243;50.726;7.080;2023-02-15T05:46:05;0.20;99.90
27900;DHT22;15243;50.726;7.080;2023-02-15T05:48:33;0.10;99.90
27900;DHT22;15243;50.726;7.080;2023-02-15T05:51:05;0.10;99.90
27900;DHT22;15243;50.726;7.080;2023-02-15T05:53:35;0.20;99.90
27900;DHT22;15243;50.726;7.080;2023-02-15T05:56:03;0.20;99.90
27900;DHT22;15243;50.726;7.080;2023-02-15T05:58:33;0.20;99.90
27900;DHT22;15243;50.726;7.080;2023-02-15T06:01:06;0.20;99.90
27900;DHT22;15243;50.726;7.080;2023-02-15T06:03:33;0.10;99.90
27900;DHT22;15243;50.726;7.080;2023-02-15T06:06:00;0.20;99.90
27900;DHT22;15243;50.726;7.080;2023-02-15T06:08:27;0.20;99.90
27900;DHT22;15243;50.726;7.080;2023-02-15T06:10:54;0.10;99.90
27900;DHT22;15243;50.726;7.080;2023-02-15T06:13:21;0.20;99.90
27900;DHT22;15243;50.726;7.080;2023-02-15T06:15:48;0.10;99.90
27900;DHT22;15243;50.726;7.080;2023-02-15T06:18:15;0.10;99.90
27900;DHT22;15243;50.726;7.080;2023-02-15T06:20:42;0.10;99.90
27900;DHT22;15243;50.726;7.080;2023-02-15T06:23:08;0.10;99.90
27900;DHT22;15243;50.726;7.080;2023-02-15T06:25:35;0.20;99.90
27900;DHT22;15243;50.726;7.080;2023-02-15T06:28:05;0.20;99.90
27900;DHT22;15243;50.726;7.080;2023-02-15T06:30:32;0.10;99.90
27900;DHT22;15243;50.726;7.080;2023-02-15T06:32:59;0.10;99.90
27900;DHT22;15243;50.726;7.080;2023-02-15T06:35:25;0.10;99.90
27900;DHT22;15243;50.726;7.080;2023-02-15T06:37:52;0.00;99.90
27900;DHT22;15243;50.726;7.080;2023-02-15T06:40:19;0.00;99.90
27900;DHT22;15243;50.726;7.080;2023-02-15T06:42:46;0.00;99.90
27900;DHT22;15243;50.726;7.080;2023-02-15T06:45:13;0.00;99.90
27900;DHT22;15243;50.726;7.080;2023-02-15T06:47:40;0.00;99.90
27900;DHT22;15243;50.726;7.080;2023-02-15T06:50:08;0.10;99.90
27900;DHT22;15243;50.726;7.080;2023-02-15T06:52:35;0.10;99.90
27900;DHT22;15243;50.726;7.080;2023-02-15T06:55:02;0.20;99.90
27900;DHT22;15243;50.726;7.080;2023-02-15T06:57:29;0.10;99.90
27900;DHT22;15243;50.726;7.080;2023-02-15T06:59:56;0.10;99.90
27900;DHT22;15243;50.726;7.080;2023-02-15T07:02:25;0.20;99.90
27900;DHT22;15243;50.726;7.080;2023-02-15T07:04:51;0.20;99.90
27900;DHT22;15243;50.726;7.080;2023-02-15T07:07:18;0.20;99.90
27900;DHT22;15243;50.726;7.080;2023-02-15T07:09:45;0.20;99.90
27900;DHT22;15243;50.726;7.080;2023-02-15T07:12:12;0.40;99.90
27900;DHT22;15243;50.726;7.080;2023-02-15T07:14:57;0.30;99.90
27900;DHT22;15243;50.726;7.080;2023-02-15T07:17:24;0.40;99.90
27900;DHT22;15243;50.726;7.080;2023-02-15T07:20:04;0.40;99.90
27900;DHT22;15243;50.726;7.080;2023-02-15T07:22:31;0.50;99.90
27900;DHT22;15243;50.726;7.080;2023-02-15T07:25:00;0.50;99.90
27900;DHT22;15243;50.726;7.080;2023-02-15T07:27:27;0.60;99.90
27900;DHT22;15243;50.726;7.080;2023-02-15T07:29:54;0.60;99.90
27900;DHT22;15243;50.726;7.080;2023-02-15T07:32:21;0.60;99.90
27900;DHT22;15243;50.726;7.080;2023-02-15T07:34:48;0.60;99.90
27900;DHT22;15243;50.726;7.080;2023-02-15T07:37:15;0.70;99.90
27900;DHT22;15243;50.726;7.080;2023-02-15T07:39:41;0.80;99.90
27900;DHT22;15243;50.726;7.080;2023-02-15T07:42:08;0.80;99.90
27900;DHT22;15243;50.726;7.080;2023-02-15T07:44:35;0.90;99.90
27900;DHT22;15243;50.726;7.080;2023-02-15T07:47:02;1.00;99.90
27900;DHT22;15243;50.726;7.080;2023-02-15T07:49:29;1.00;99.90
27900;DHT22;15243;50.726;7.080;2023-02-15T07:51:56;1.00;99.90
27900;DHT22;15243;50.726;7.080;2023-02-15T07:54:23;1.10;99.90
27900;DHT22;15243;50.726;7.080;2023-02-15T07:56:49;1.20;99.90
27900;DHT22;15243;50.726;7.080;2023-02-15T07:59:16;1.30;99.90
27900;DHT22;15243;50.726;7.080;2023-02-15T08:01:43;1.30;99.90
27900;DHT22;15243;50.726;7.080;2023-02-15T08:04:10;1.40;99.90
27900;DHT22;15243;50.726;7.080;2023-02-15T08:06:38;1.40;99.90
27900;DHT22;15243;50.726;7.080;2023-02-15T08:09:08;1.50;99.90
27900;DHT22;15243;50.726;7.080;2023-02-15T08:11:36;1.60;99.90
27900;DHT22;15243;50.726;7.080;2023-02-15T08:14:18;1.70;99.90
27900;DHT22;15243;50.726;7.080;2023-02-15T08:16:48;1.80;99.90
27900;DHT22;15243;50.726;7.080;2023-02-15T08:19:34;1.80;99.90
27900;DHT22;15243;50.726;7.080;2023-02-15T08:22:06;2.00;99.90
27900;DHT22;15243;50.726;7.080;2023-02-15T08:24:35;2.00;99.90
27900;DHT22;15243;50.726;7.080;2023-02-15T08:27:07;2.10;99.90
27900;DHT22;15243;50.726;7.080;2023-02-15T08:29:36;2.20;99.90
27900;DHT22;15243;50.726;7.080;2023-02-15T08:32:06;2.10;99.90
27900;DHT22;15243;50.726;7.080;2023-02-15T08:34:36;2.20;99.90
27900;DHT22;15243;50.726;7.080;2023-02-15T08:37:04;2.30;99.90
27900;DHT22;15243;50.726;7.080;2023-02-15T08:39:32;2.40;99.90
27900;DHT22;15243;50.726;7.080;2023-02-15T08:42:00;2.50;99.90
27900;DHT22;15243;50.726;7.080;2023-02-15T08:44:27;2.60;99.90
27900;DHT22;15243;50.726;7.080;2023-02-15T08:46:53;2.80;99.90
27900;DHT22;15243;50.726;7.080;2023-02-15T08:49:21;3.00;99.90
27900;DHT22;15243;50.726;7.080;2023-02-15T08:51:49;3.10;99.90
27900;DHT22;15243;50.726;7.080;2023-02-15T08:54:19;3.30;99.90
27900;DHT22;15243;50.726;7.080;2023-02-15T08:56:46;3.40;99.90
27900;DHT22;15243;50.726;7.080;2023-02-15T08:59:16;3.60;99.90
27900;DHT22;15243;50.726;7.080;2023-02-15T09:01:43;3.50;99.90
27900;DHT22;15243;50.726;7.080;2023-02-15T09:04:11;3.50;99.90
27900;DHT22;15243;50.726;7.080;2023-02-15T09:06:40;3.80;99.90
27900;DHT22;15243;50.726;7.080;2023-02-15T09:09:08;4.10;99.90
27900;DHT22;15243;50.726;7.080;2023-02-15T09:11:38;4.20;99.90
27900;DHT22;15243;50.726;7.080;2023-02-15T09:14:10;4.30;99.90
27900;DHT22;15243;50.726;7.080;2023-02-15T09:16:41;4.30;99.90
27900;DHT22;15243;50.726;7.080;2023-02-15T09:19:08;4.50;99.90
27900;DHT22;15243;50.726;7.080;2023-02-15T09:21:36;4.70;99.90
27900;DHT22;15243;50.726;7.080;2023-02-15T09:24:06;4.70;99.90
27900;DHT22;15243;50.726;7.080;2023-02-15T09:26:35;4.70;99.90
27900;DHT22;15243;50.726;7.080;2023-02-15T09:29:03;4.90;99.90
27900;DHT22;15243;50.726;7.080;2023-02-15T09:31:33;5.00;99.90
27900;DHT22;15243;50.726;7.080;2023-02-15T09:34:00;5.20;99.90
27900;DHT22;15243;50.726;7.080;2023-02-15T09:36:35;5.50;99.90
27900;DHT22;15243;50.726;7.080;2023-02-15T09:39:25;5.70;99.90
27900;DHT22;15243;50.726;7.080;2023-02-15T09:45:13;6.00;99.90
27900;DHT22;15243;50.726;7.080;2023-02-15T09:48:01;5.80;99.90
27900;DHT22;15243;50.726;7.080;2023-02-15T09:50:52;6.00;99.90
27900;DHT22;15243;50.726;7.080;2023-02-15T09:53:33;6.00;99.90
27900;DHT22;15243;50.726;7.080;2023-02-15T09:56:09;6.20;99.90
27900;DHT22;15243;50.726;7.080;2023-02-15T10:12:56;6.70;99.90
27900;DHT22;15243;50.726;7.080;2023-02-15T10:18:30;7.00;99.90
27900;DHT22;15243;50.726;7.080;2023-02-15T10:26:43;7.60;99.90
27900;DHT22;15243;50.726;7.080;2023-02-15T10:31:48;7.70;99.90
27900;DHT22;15243;50.726;7.080;2023-02-15T10:34:20;7.40;99.90
27900;DHT22;15243;50.726;7.080;2023-02-15T10:40:28;7.40;99.90
27900;DHT22;15243;50.726;7.080;2023-02-15T10:48:50;7.40;99.90
27900;DHT22;15243;50.726;7.080;2023-02-15T10:51:53;7.80;99.90
27900;DHT22;15243;50.726;7.080;2023-02-15T11:05:15;7.90;99.90
27900;DHT22;15243;50.726;7.080;2023-02-15T11:07:47;8.00;99.90
27900;DHT22;15243;50.726;7.080;2023-02-15T11:10:33;8.10;99.90
27900;DHT22;15243;50.726;7.080;2023-02-15T11:13:19;8.40;99.90
27900;DHT22;15243;50.726;7.080;2023-02-15T11:18:30;8.90;99.90
27900;DHT22;15243;50.726;7.080;2023-02-15T11:21:26;9.00;99.90
27900;DHT22;15243;50.726;7.080;2023-02-15T11:23:51;9.10;99.90
27900;DHT22;15243;50.726;7.080;2023-02-15T11:26:33;8.80;99.90
27900;DHT22;15243;50.726;7.080;2023-02-15T11:29:29;8.60;99.90
27900;DHT22;15243;50.726;7.080;2023-02-15T11:32:02;8.60;99.90
27900;DHT22;15243;50.726;7.080;2023-02-15T11:34:37;9.00;99.90
27900;DHT22;15243;50.726;7.080;2023-02-15T11:37:08;9.10;99.90
27900;DHT22;15243;50.726;7.080;2023-02-15T11:39:36;9.20;99.90
27900;DHT22;15243;50.726;7.080;2023-02-15T11:42:13;9.40;99.90
27900;DHT22;15243;50.726;7.080;2023-02-15T11:47:21;10.00;99.90
27900;DHT22;15243;50.726;7.080;2023-02-15T11:49:49;9.50;99.90
27900;DHT22;15243;50.726;7.080;2023-02-15T11:52:16;9.70;99.90
27900;DHT22;15243;50.726;7.080;2023-02-15T11:54:47;9.90;99.90
27900;DHT22;15243;50.726;7.080;2023-02-15T11:57:31;10.00;99.90
27900;DHT22;15243;50.726;7.080;2023-02-15T12:00:03;10.20;99.90
27900;DHT22;15243;50.726;7.080;2023-02-15T12:02:36;10.30;99.90
27900;DHT22;15243;50.726;7.080;2023-02-15T12:05:09;10.30;99.90
27900;DHT22;15243;50.726;7.080;2023-02-15T12:08:24;10.30;99.90
27900;DHT22;15243;50.726;7.080;2023-02-15T12:10:38;10.60;99.90
27900;DHT22;15243;50.726;7.080;2023-02-15T12:13:12;10.80;99.90
27900;DHT22;15243;50.726;7.080;2023-02-15T12:15:45;10.90;99.90
27900;DHT22;15243;50.726;7.080;2023-02-15T12:18:38;10.80;99.90
27900;DHT22;15243;50.726;7.080;2023-02-15T12:21:07;11.00;99.90
27900;DHT22;15243;50.726;7.080;2023-02-15T12:23:51;11.10;99.90
27900;DHT22;15243;50.726;7.080;2023-02-15T12:26:44;11.30;99.90
27900;DHT22;15243;50.726;7.080;2023-02-15T12:29:22;11.40;99.90
27900;DHT22;15243;50.726;7.080;2023-02-15T12:31:52;11.30;99.90
27900;DHT22;15243;50.726;7.080;2023-02-15T12:34:35;11.30;99.90
27900;DHT22;15243;50.726;7.080;2023-02-15T12:37:10;11.50;99.90
27900;DHT22;15243;50.726;7.080;2023-02-15T12:39:57;11.20;99.90
27900;DHT22;15243;50.726;7.080;2023-02-15T12:42:25;11.20;99.90
27900;DHT22;15243;50.726;7.080;2023-02-15T12:45:08;11.10;99.90
27900;DHT22;15243;50.726;7.080;2023-02-15T12:47:45;11.00;99.90
27900;DHT22;15243;50.726;7.080;2023-02-15T12:50:15;10.90;99.90
27900;DHT22;15243;50.726;7.080;2023-02-15T12:52:50;10.90;99.90
27900;DHT22;15243;50.726;7.080;2023-02-15T12:55:27;10.90;99.90
27900;DHT22;15243;50.726;7.080;2023-02-15T12:58:21;11.20;99.90
27900;DHT22;15243;50.726;7.080;2023-02-15T13:03:29;11.60;99.90
27900;DHT22;15243;50.726;7.080;2023-02-15T13:05:57;11.90;99.90
27900;DHT22;15243;50.726;7.080;2023-02-15T13:08:33;11.90;99.90
27900;DHT22;15243;50.726;7.080;2023-02-15T13:11:09;11.90;99.90
27900;DHT22;15243;50.726;7.080;2023-02-15T13:14:01;12.10;99.90
27900;DHT22;15243;50.726;7.080;2023-02-15T13:16:37;11.70;99.90
27900;DHT22;15243;50.726;7.080;2023-02-15T13:19:18;12.10;99.90
27900;DHT22;15243;50.726;7.080;2023-02-15T13:21:48;12.20;99.90
27900;DHT22;15243;50.726;7.080;2023-02-15T13:24:24;12.00;99.90
27900;DHT22;15243;50.726;7.080;2023-02-15T13:26:55;12.50;99.90
27900;DHT22;15243;50.726;7.080;2023-02-15T13:29:44;13.00;99.90
27900;DHT22;15243;50.726;7.080;2023-02-15T13:32:30;13.20;99.90
27900;DHT22;15243;50.726;7.080;2023-02-15T13:34:59;13.30;99.90
27900;DHT22;15243;50.726;7.080;2023-02-15T13:41:09;13.60;99.90
27900;DHT22;15243;50.726;7.080;2023-02-15T13:46:45;12.30;99.90
27900;DHT22;15243;50.726;7.080;2023-02-15T14:09:07;13.40;99.90
27900;DHT22;15243;50.726;7.080;2023-02-15T14:22:53;14.80;99.90
27900;DHT22;15243;50.726;7.080;2023-02-15T14:28:09;15.30;99.90
27900;DHT22;15243;50.726;7.080;2023-02-15T14:30:39;14.90;99.90
27900;DHT22;15243;50.726;7.080;2023-02-15T14:35:40;15.40;99.90
27900;DHT22;15243;50.726;7.080;2023-02-15T14:38:24;15.30;99.90
27900;DHT22;15243;50.726;7.080;2023-02-15T14:44:08;15.20;99.90
27900;DHT22;15243;50.726;7.080;2023-02-15T14:49:26;15.40;99.90
27900;DHT22;15243;50.726;7.080;2023-02-15T14:51:55;14.90;99.90
27900;DHT22;15243;50.726;7.080;2023-02-15T14:59:50;14.00;99.90
27900;DHT22;15243;50.726;7.080;2023-02-15T15:07:56;13.80;99.90
27900;DHT22;15243;50.726;7.080;2023-02-15T15:12:54;13.80;99.90
27900;DHT22;15243;50.726;7.080;2023-02-15T15:25:49;13.10;99.90
27900;DHT22;15243;50.726;7.080;2023-02-15T15:31:24;12.80;99.90
27900;DHT22;15243;50.726;7.080;2023-02-15T15:42:43;11.90;99.90
27900;DHT22;15243;50.726;7.080;2023-02-15T15:50:52;11.50;99.90
27900;DHT22;15243;50.726;7.080;2023-02-15T15:53:23;11.50;99.90
27900;DHT22;15243;50.726;7.080;2023-02-15T15:55:58;11.30;99.90
27900;DHT22;15243;50.726;7.080;2023-02-15T15:58:26;11.30;99.90
27900;DHT22;15243;50.726;7.080;2023-02-15T16:01:02;11.20;99.90
27900;DHT22;15243;50.726;7.080;2023-02-15T16:03:30;11.10;99.90
27900;DHT22;15243;50.726;7.080;2023-02-15T16:05:57;10.90;99.90
27900;DHT22;15243;50.726;7.080;2023-02-15T16:08:33;10.80;99.90
27900;DHT22;15243;50.726;7.080;2023-02-15T16:11:13;10.70;99.90
27900;DHT22;15243;50.726;7.080;2023-02-15T16:13:41;10.60;99.90
27900;DHT22;15243;50.726;7.080;2023-02-15T16:16:11;10.40;99.90
27900;DHT22;15243;50.726;7.080;2023-02-15T16:18:46;10.40;99.90
27900;DHT22;15243;50.726;7.080;2023-02-15T16:21:20;10.30;99.90
27900;DHT22;15243;50.726;7.080;2023-02-15T16:29:16;9.90;99.90
27900;DHT22;15243;50.726;7.080;2023-02-15T16:31:56;9.90;99.90
27900;DHT22;15243;50.726;7.080;2023-02-15T16:34:23;9.80;99.90
27900;DHT22;15243;50.726;7.080;2023-02-15T16:36:50;9.60;99.90
27900;DHT22;15243;50.726;7.080;2023-02-15T16:39:19;9.50;99.90
27900;DHT22;15243;50.726;7.080;2023-02-15T16:41:47;9.40;99.90
27900;DHT22;15243;50.726;7.080;2023-02-15T16:44:18;9.30;99.90
27900;DHT22;15243;50.726;7.080;2023-02-15T16:46:51;9.20;99.90
27900;DHT22;15243;50.726;7.080;2023-02-15T16:49:23;9.20;99.90
27900;DHT22;15243;50.726;7.080;2023-02-15T16:52:02;9.10;99.90
27900;DHT22;15243;50.726;7.080;2023-02-15T16:54:31;9.00;99.90
27900;DHT22;15243;50.726;7.080;2023-02-15T16:56:58;8.90;99.90
27900;DHT22;15243;50.726;7.080;2023-02-15T16:59:45;8.70;99.90
27900;DHT22;15243;50.726;7.080;2023-02-15T17:02:19;8.60;99.90
27900;DHT22;15243;50.726;7.080;2023-02-15T17:07:41;8.50;99.90
27900;DHT22;15243;50.726;7.080;2023-02-15T17:10:37;8.50;99.90
27900;DHT22;15243;50.726;7.080;2023-02-15T17:13:13;8.30;99.90
27900;DHT22;15243;50.726;7.080;2023-02-15T17:15:42;8.50;99.90
27900;DHT22;15243;50.726;7.080;2023-02-15T17:18:20;8.50;99.90
27900;DHT22;15243;50.726;7.080;2023-02-15T17:20:50;8.30;99.90
27900;DHT22;15243;50.726;7.080;2023-02-15T17:23:40;8.20;99.90
27900;DHT22;15243;50.726;7.080;2023-02-15T17:26:15;8.10;99.90
27900;DHT22;15243;50.726;7.080;2023-02-15T17:28:51;8.20;99.90
27900;DHT22;15243;50.726;7.080;2023-02-15T17:31:20;8.10;99.90
27900;DHT22;15243;50.726;7.080;2023-02-15T17:33:48;8.10;99.90
27900;DHT22;15243;50.726;7.080;2023-02-15T17:36:20;8.10;99.90
27900;DHT22;15243;50.726;7.080;2023-02-15T17:41:29;8.00;99.90
27900;DHT22;15243;50.726;7.080;2023-02-15T17:43:56;7.90;99.90
27900;DHT22;15243;50.726;7.080;2023-02-15T17:46:24;7.90;99.90
27900;DHT22;15243;50.726;7.080;2023-02-15T17:48:53;8.00;99.90
27900;DHT22;15243;50.726;7.080;2023-02-15T17:51:21;7.90;99.90
27900;DHT22;15243;50.726;7.080;2023-02-15T17:53:49;7.90;99.90
27900;DHT22;15243;50.726;7.080;2023-02-15T17:56:35;7.80;99.90
27900;DHT22;15243;50.726;7.080;2023-02-15T17:59:03;7.80;99.90
27900;DHT22;15243;50.726;7.080;2023-02-15T18:01:34;7.70;99.90
27900;DHT22;15243;50.726;7.080;2023-02-15T18:04:21;7.60;99.90
27900;DHT22;15243;50.726;7.080;2023-02-15T18:07:12;7.50;99.90
27900;DHT22;15243;50.726;7.080;2023-02-15T18:09:57;7.40;99.90
27900;DHT22;15243;50.726;7.080;2023-02-15T18:12:43;7.40;99.90
27900;DHT22;15243;50.726;7.080;2023-02-15T18:15:09;7.40;99.90
27900;DHT22;15243;50.726;7.080;2023-02-15T18:17:45;7.40;99.90
27900;DHT22;15243;50.726;7.080;2023-02-15T18:20:22;7.40;99.90
27900;DHT22;15243;50.726;7.080;2023-02-15T18:22:51;7.30;99.90
27900;DHT22;15243;50.726;7.080;2023-02-15T18:25:20;7.30;99.90
27900;DHT22;15243;50.726;7.080;2023-02-15T18:27:47;7.20;99.90
27900;DHT22;15243;50.726;7.080;2023-02-15T18:30:17;7.20;99.90
27900;DHT22;15243;50.726;7.080;2023-02-15T18:32:46;7.20;99.90
27900;DHT22;15243;50.726;7.080;2023-02-15T18:35:19;7.20;99.90
27900;DHT22;15243;50.726;7.080;2023-02-15T18:37:47;7.10;99.90
27900;DHT22;15243;50.726;7.080;2023-02-15T18:40:16;7.00;99.90
27900;DHT22;15243;50.726;7.080;2023-02-15T18:42:43;7.00;99.90
27900;DHT22;15243;50.726;7.080;2023-02-15T18:45:22;6.90;99.90
27900;DHT22;15243;50.726;7.080;2023-02-15T18:47:50;6.90;99.90
27900;DHT22;15243;50.726;7.080;2023-02-15T18:50:19;6.90;99.90
27900;DHT22;15243;50.726;7.080;2023-02-15T18:52:47;6.80;99.90
27900;DHT22;15243;50.726;7.080;2023-02-15T18:55:26;6.70;99.90
27900;DHT22;15243;50.726;7.080;2023-02-15T18:57:55;6.60;99.90
27900;DHT22;15243;50.726;7.080;2023-02-15T19:00:25;6.50;99.90
27900;DHT22;15243;50.726;7.080;2023-02-15T19:02:54;6.50;99.90
27900;DHT22;15243;50.726;7.080;2023-02-15T19:05:22;6.40;99.90
27900;DHT22;15243;50.726;7.080;2023-02-15T19:07:50;6.30;99.90
27900;DHT22;15243;50.726;7.080;2023-02-15T19:10:22;6.30;99.90
27900;DHT22;15243;50.726;7.080;2023-02-15T19:12:50;6.20;99.90
27900;DHT22;15243;50.726;7.080;2023-02-15T19:15:22;6.20;99.90
27900;DHT22;15243;50.726;7.080;2023-02-15T19:17:53;6.20;99.90